x

Luke Offshore Test Platform - 64 Nm South Of Dauphin Island, Al (42040) Wave Buoy

5:50pm - Wed 27th May 2015 All times are CDT. -5 hours from GMT.

  • Sig Wave height 3.0ft
  • Swell Direction
  • Peak Period 5s
  • Average Period 5s
  • Wind
    11mph, 13mph gusts
  • Sea Temp 82°f
  • Air Temp 78°f
  • Sea Pressure 1019.6mb
  • Luke Offshore Test Platform - 64 Nm South Of Dauphin Island, Al
  • Luke Offshore Test Platform - 64 Nm South Of Dauphin Island, Al

More Historic Weather Station data

Upgrade to MSW Pro to gain access to the past 30 days of data for over 8000 Wavebouys and Weather Stations around the globe.

Join Pro

Comparision Forecast

View Surf forecast
   
Wed 05/27 5:50pm 3ft 5s 5s 11 13 mph 1019.6mb 82f 78f
4:50pm 3ft 6s 5s 2
mph
1020.1mb 83f 82f
3:50pm 3.5ft 7s 5s 2 4 mph 1019.6mb 82f 81f
2:50pm 3.5ft 6s 5s 4
mph
1020.3mb 82f 81f
1:50pm 3.5ft 6s 5s 11
mph
1020.8mb 82f 80f
12:50pm 3.5ft 8s 5s 11
mph
1021mb 81f 80f
11:50am 3.5ft 7s 5s 9 11 mph 1021.2mb 81f 80f
10:50am 3ft 6s 5s 9 11 mph 1021.5mb 80f 80f
9:50am 3.5ft 8s 6s 9
mph
1021.1mb 80f 80f
8:50am 3ft 7s 5s 13 16 mph 1020mb 79f 79f
7:50am 3ft 7s 5s 11 13 mph 1019.9mb 79f 79f
6:50am 3ft 8s 5s 9 11 mph 1020.3mb 78f 79f
5:50am 2.5ft 7s 5s 7 9 mph 1020.4mb 78f 78f
4:50am 2.5ft 8s 5s 2
mph
1020.1mb 78f 78f
3:50am 3ft 7s 5s 7
mph
1019.3mb 79f 78f
2:50am 3.5ft 7s 5s 9 11 mph 1019.1mb 79f 78f
1:50am 3.5ft 7s 5s 9 11 mph 1019.4mb 79f 78f
12:50am 3.5ft 7s 5s 7
mph
1019.5mb 79f 78f
Tue 05/26 11:50pm 3.5ft 7s 5s 7 9 mph 1019.7mb 79f 79f
10:50pm 4ft 7s 5s 7
mph
1020.1mb 80f 79f
9:50pm 3.5ft 7s 5s 9 11 mph 1019.9mb 80f 79f
8:50pm 4ft 7s 5s 16 18 mph 1019.3mb 80f 79f
7:50pm 3.5ft 6s 4s 13 16 mph 1019.4mb 80f 78f
6:50pm 3.5ft 7s 5s 18 20 mph 1019.2mb 80f 79f
5:50pm 4ft 7s 5s 11 13 mph 1019.4mb 80f 79f
4:50pm 3.5ft 8s 5s 7 9 mph 1019.3mb 80f 80f
3:50pm 3.5ft 6s 4s 9 11 mph 1019mb 80f 79f
2:50pm 3.5ft 6s 5s 18 22 mph 1018.8mb 80f 78f
1:50pm 4.5ft 5s 5s 18 20 mph 1019.5mb 80f 77f
12:50pm 4.5ft 5s 5s 11 16 mph 1020.2mb 80f 77f
11:50am 5.5ft 6s 5s 13 16 mph 1020.5mb 80f 76f
10:50am 5ft 6s 5s 18 20 mph 1020.8mb 80f 74f
9:50am 4.5ft 6s 4s 25 31 mph 1021mb 80f 73f
8:50am 4.5ft 6s 5s 13
mph
1020mb 80f 81f
7:50am 4ft 7s 5s 11 13 mph 1019.8mb 80f 81f
6:50am 4.5ft 7s 5s 13 16 mph 1019mb 80f 81f
5:50am 4ft 6s 5s 16 18 mph 1018.4mb 80f 80f
4:50am 4.5ft 7s 5s 16 18 mph 1017.9mb 80f 80f
3:50am 4.5ft 7s 5s 13 16 mph 1017.9mb 80f 80f
2:50am 4.5ft 7s 5s 16 18 mph 1018.3mb 80f 80f
1:50am 5ft 7s 5s 16 20 mph 1018.5mb 80f 80f
12:50am 4.5ft 6s 5s 18 22 mph 1018.7mb 80f 80f
Mon 05/25 11:50pm 4.5ft 7s 5s 18 20 mph 1018.8mb 80f 80f
10:50pm 4.5ft 7s 5s 20 29 mph 1019.2mb 80f 80f
9:50pm 4.5ft 7s 5s 20 22 mph 1018.4mb 80f 80f
8:50pm 4ft 7s 5s 18 22 mph 1018.1mb 81f 80f
7:50pm 4.5ft 6s 5s 16 18 mph 1018mb 81f 81f
6:50pm 4ft 6s 5s 13 16 mph 1017.9mb 81f 81f
5:50pm 4ft 7s 5s 11 13 mph 1018.1mb 81f 81f
4:50pm 4.5ft 6s 5s 11
mph
1018.4mb 81f 81f
3:50pm 4.5ft 7s 6s 13 16 mph 1018.5mb 81f 81f
2:50pm 4.5ft 6s 5s 11 13 mph 1018.7mb 80f 81f
1:50pm 4.5ft 7s 5s 9 11 mph 1019.5mb 80f 81f
12:50pm 4.5ft 7s 5s 9 13 mph 1019.7mb 79f 80f
11:50am 4.5ft 7s 5s 13 18 mph 1019.7mb 79f 79f
10:50am 5ft 7s 5s 13 16 mph 1020.3mb 79f 77f
9:50am 5ft 7s 5s 18 20 mph 1020.5mb 79f 76f
8:50am 5ft 7s 5s 20 25 mph 1020.3mb 79f 77f
7:50am 5ft 7s 5s 20 22 mph 1019.7mb 79f 78f
6:50am  -   -   -  20 25 mph 1018.7mb 79f 78f
5:50am 5.5ft 7s 5s 16 18 mph 1018.7mb 78f 78f
4:50am 6ft 6s 5s 22 27 mph 1018.2mb 78f 77f
3:50am 5.5ft 7s 5s 20 22 mph 1017.5mb 78f 76f
2:50am 5ft 7s 5s 18 22 mph 1017.7mb 78f 79f
1:50am 5ft 7s 5s 20 36 mph 1018.1mb 78f 77f
12:50am 5.5ft 7s 5s 18 20 mph 1018.7mb 78f 80f
Sun 05/24 11:50pm 6ft 7s 5s 18 22 mph 1019.5mb 78f 80f
10:50pm 6ft 7s 5s 22 27 mph 1019.2mb 78f 80f
9:50pm 6ft 7s 5s 22 25 mph 1019mb 78f 80f
8:50pm 5ft 7s 5s 25 29 mph 1018.5mb 78f 80f
7:50pm 6ft 6s 5s 20 25 mph 1018.3mb 78f 80f
6:50pm 6ft 6s 5s 20 25 mph 1018mb 78f 80f
5:50pm 6ft 7s 5s 20 29 mph 1017.7mb 78f 80f
4:50pm 5.5ft 7s 5s 22 27 mph 1017.8mb 78f 79f
3:50pm 5ft 6s 5s 20 22 mph 1018.4mb 79f 80f
2:50pm 4.5ft 5s 5s 20 25 mph 1019.1mb 79f 81f
1:50pm 4.5ft 6s 5s 18 22 mph 1020.1mb 81f 81f
12:50pm 4ft 5s 4s 20 25 mph 1020.2mb 81f 81f
11:50am 4ft 6s 4s 20 25 mph 1020.6mb 81f 81f
10:50am 3.5ft 6s 5s 18 22 mph 1020.7mb 80f 81f
9:50am 4ft 6s 5s 20 22 mph 1020.6mb 80f 80f
8:50am 3.5ft 6s 5s 18 20 mph 1020.2mb 80f 80f
7:50am 4.5ft 6s 5s 18 22 mph 1020mb 80f 80f
6:50am 4ft 6s 5s 18 22 mph 1019.7mb 80f 80f
5:50am 4ft 6s 5s 18 22 mph 1020mb 80f 80f
4:50am 4ft 6s 5s 18 22 mph 1019.9mb 80f 80f
3:50am 4.5ft 6s 5s 18 22 mph 1019.9mb 80f 79f
2:50am 4ft 6s 5s 18 20 mph 1019.9mb 80f 79f
1:50am 4ft 6s 5s 18 22 mph 1019.9mb 80f 79f
12:50am 3.5ft 5s 4s 20 25 mph 1020.4mb 80f 79f